Weather at Rainbow Heliport

Public forecast

Using degrees Fahrenheit for public forecast. Weather courtesy of forecast.io.

Closest aviation weather report (METAR) to Rainbow Heliport

Closest report is General Wayne A. Downing Peoria International Airport, 6.7 nm (12.4 km) S. Retrieved 2021/10/21 04:54 UTC (40 minutes ago):

KPIA 210454Z 27011G19KT 10SM BKN041 16/08 A2992 RMK AO2 SLP130 T01610083

Closest aviation forecast (TAF) to Rainbow Heliport

Closest forecast is General Wayne A. Downing Peoria International Airport, 6.7 nm (12.4 km) S. Retrieved 2021-10-21 00:34 UTC (5 hours ago):

TAF KPIA 202331Z 2100/2124 22011KT P6SM VCSH BKN050 FM210400 24012KT P6SM SCT050 FM211400 27011G20KT P6SM BKN020